sensor_id;sensor_type;location;lat;lon;timestamp;P1;durP1;ratioP1;P2;durP2;ratioP2
25049;SDS011;13046;49.814;9.918;2023-11-21T00:01:19;7.97;;;3.28;;
25049;SDS011;13046;49.814;9.918;2023-11-21T00:03:45;6.22;;;3.95;;
25049;SDS011;13046;49.814;9.918;2023-11-21T00:06:11;6.82;;;3.40;;
25049;SDS011;13046;49.814;9.918;2023-11-21T00:08:36;8.20;;;3.20;;
25049;SDS011;13046;49.814;9.918;2023-11-21T00:11:02;6.60;;;3.42;;
25049;SDS011;13046;49.814;9.918;2023-11-21T00:13:31;5.63;;;4.05;;
25049;SDS011;13046;49.814;9.918;2023-11-21T00:15:57;8.13;;;4.13;;
25049;SDS011;13046;49.814;9.918;2023-11-21T00:18:23;10.27;;;3.33;;
25049;SDS011;13046;49.814;9.918;2023-11-21T00:20:49;6.57;;;4.20;;
25049;SDS011;13046;49.814;9.918;2023-11-21T00:23:14;4.93;;;3.45;;
25049;SDS011;13046;49.814;9.918;2023-11-21T00:25:40;10.45;;;4.03;;
25049;SDS011;13046;49.814;9.918;2023-11-21T00:28:06;5.85;;;3.97;;
25049;SDS011;13046;49.814;9.918;2023-11-21T00:30:31;11.80;;;4.15;;
25049;SDS011;13046;49.814;9.918;2023-11-21T00:32:57;9.70;;;5.35;;
25049;SDS011;13046;49.814;9.918;2023-11-21T00:35:24;4.45;;;3.72;;
25049;SDS011;13046;49.814;9.918;2023-11-21T00:37:49;4.55;;;3.78;;
25049;SDS011;13046;49.814;9.918;2023-11-21T00:40:15;8.38;;;3.90;;
25049;SDS011;13046;49.814;9.918;2023-11-21T00:42:44;5.80;;;3.40;;
25049;SDS011;13046;49.814;9.918;2023-11-21T00:45:10;7.53;;;3.75;;
25049;SDS011;13046;49.814;9.918;2023-11-21T00:47:36;5.63;;;4.50;;
25049;SDS011;13046;49.814;9.918;2023-11-21T00:50:02;6.78;;;2.90;;
25049;SDS011;13046;49.814;9.918;2023-11-21T00:52:31;7.88;;;4.00;;
25049;SDS011;13046;49.814;9.918;2023-11-21T00:54:56;13.25;;;5.75;;
25049;SDS011;13046;49.814;9.918;2023-11-21T00:57:24;6.25;;;3.83;;
25049;SDS011;13046;49.814;9.918;2023-11-21T00:59:50;4.45;;;4.05;;
25049;SDS011;13046;49.814;9.918;2023-11-21T01:02:15;4.32;;;3.72;;
25049;SDS011;13046;49.814;9.918;2023-11-21T01:04:41;8.82;;;4.13;;
25049;SDS011;13046;49.814;9.918;2023-11-21T01:07:07;7.10;;;4.03;;
25049;SDS011;13046;49.814;9.918;2023-11-21T01:09:32;10.38;;;4.65;;
25049;SDS011;13046;49.814;9.918;2023-11-21T01:11:58;8.25;;;4.60;;
25049;SDS011;13046;49.814;9.918;2023-11-21T01:14:25;7.57;;;3.95;;
25049;SDS011;13046;49.814;9.918;2023-11-21T01:16:51;10.32;;;4.80;;
25049;SDS011;13046;49.814;9.918;2023-11-21T01:19:17;5.45;;;4.03;;
25049;SDS011;13046;49.814;9.918;2023-11-21T01:21:43;5.22;;;4.00;;
25049;SDS011;13046;49.814;9.918;2023-11-21T01:24:09;11.93;;;3.92;;
25049;SDS011;13046;49.814;9.918;2023-11-21T01:26:35;7.80;;;4.50;;
25049;SDS011;13046;49.814;9.918;2023-11-21T01:29:01;12.32;;;4.60;;
25049;SDS011;13046;49.814;9.918;2023-11-21T01:31:27;6.55;;;4.70;;
25049;SDS011;13046;49.814;9.918;2023-11-21T01:33:54;9.95;;;3.88;;
25049;SDS011;13046;49.814;9.918;2023-11-21T01:36:21;11.70;;;4.50;;
25049;SDS011;13046;49.814;9.918;2023-11-21T01:38:46;5.63;;;4.07;;
25049;SDS011;13046;49.814;9.918;2023-11-21T01:41:13;6.07;;;4.38;;
25049;SDS011;13046;49.814;9.918;2023-11-21T01:43:39;7.75;;;4.43;;
25049;SDS011;13046;49.814;9.918;2023-11-21T01:46:06;10.85;;;4.25;;
25049;SDS011;13046;49.814;9.918;2023-11-21T01:48:33;5.60;;;4.00;;
25049;SDS011;13046;49.814;9.918;2023-11-21T01:50:59;7.57;;;4.53;;
25049;SDS011;13046;49.814;9.918;2023-11-21T01:53:25;8.98;;;3.85;;
25049;SDS011;13046;49.814;9.918;2023-11-21T01:55:52;6.07;;;4.38;;
25049;SDS011;13046;49.814;9.918;2023-11-21T01:58:19;5.95;;;3.97;;
25049;SDS011;13046;49.814;9.918;2023-11-21T02:00:45;7.35;;;4.80;;
25049;SDS011;13046;49.814;9.918;2023-11-21T02:03:11;9.00;;;4.10;;
25049;SDS011;13046;49.814;9.918;2023-11-21T02:05:37;6.03;;;4.30;;
25049;SDS011;13046;49.814;9.918;2023-11-21T02:08:03;5.57;;;3.60;;
25049;SDS011;13046;49.814;9.918;2023-11-21T02:10:29;5.75;;;3.47;;
25049;SDS011;13046;49.814;9.918;2023-11-21T02:12:57;4.70;;;3.55;;
25049;SDS011;13046;49.814;9.918;2023-11-21T02:15:23;4.40;;;3.70;;
25049;SDS011;13046;49.814;9.918;2023-11-21T02:17:53;4.57;;;3.60;;
25049;SDS011;13046;49.814;9.918;2023-11-21T02:20:20;6.78;;;3.90;;
25049;SDS011;13046;49.814;9.918;2023-11-21T02:22:51;8.32;;;3.65;;
25049;SDS011;13046;49.814;9.918;2023-11-21T02:25:41;4.82;;;3.72;;
25049;SDS011;13046;49.814;9.918;2023-11-21T02:28:07;9.30;;;3.85;;
25049;SDS011;13046;49.814;9.918;2023-11-21T02:30:34;8.05;;;4.55;;
25049;SDS011;13046;49.814;9.918;2023-11-21T02:33:02;7.40;;;4.90;;
25049;SDS011;13046;49.814;9.918;2023-11-21T02:35:28;8.43;;;5.05;;
25049;SDS011;13046;49.814;9.918;2023-11-21T02:37:57;8.70;;;4.68;;
25049;SDS011;13046;49.814;9.918;2023-11-21T02:40:23;6.13;;;3.50;;
25049;SDS011;13046;49.814;9.918;2023-11-21T02:42:51;8.13;;;4.20;;
25049;SDS011;13046;49.814;9.918;2023-11-21T02:45:19;5.38;;;4.38;;
25049;SDS011;13046;49.814;9.918;2023-11-21T02:47:46;6.63;;;3.58;;
25049;SDS011;13046;49.814;9.918;2023-11-21T02:50:13;5.75;;;3.72;;
25049;SDS011;13046;49.814;9.918;2023-11-21T02:52:38;10.90;;;4.25;;
25049;SDS011;13046;49.814;9.918;2023-11-21T02:55:07;7.32;;;3.95;;
25049;SDS011;13046;49.814;9.918;2023-11-21T02:57:33;7.43;;;4.03;;
25049;SDS011;13046;49.814;9.918;2023-11-21T02:59:59;6.47;;;3.72;;
25049;SDS011;13046;49.814;9.918;2023-11-21T03:02:25;7.00;;;3.55;;
25049;SDS011;13046;49.814;9.918;2023-11-21T03:04:51;7.00;;;3.67;;
25049;SDS011;13046;49.814;9.918;2023-11-21T03:07:18;6.82;;;3.30;;
25049;SDS011;13046;49.814;9.918;2023-11-21T03:09:44;7.38;;;4.28;;
25049;SDS011;13046;49.814;9.918;2023-11-21T03:12:11;6.13;;;4.45;;
25049;SDS011;13046;49.814;9.918;2023-11-21T03:14:41;7.03;;;4.00;;
25049;SDS011;13046;49.814;9.918;2023-11-21T03:17:06;5.50;;;3.63;;
25049;SDS011;13046;49.814;9.918;2023-11-21T03:19:32;7.20;;;3.92;;
25049;SDS011;13046;49.814;9.918;2023-11-21T03:21:58;7.68;;;3.90;;
25049;SDS011;13046;49.814;9.918;2023-11-21T03:24:24;9.40;;;3.92;;
25049;SDS011;13046;49.814;9.918;2023-11-21T03:26:51;7.65;;;3.92;;
25049;SDS011;13046;49.814;9.918;2023-11-21T03:29:17;9.18;;;3.60;;
25049;SDS011;13046;49.814;9.918;2023-11-21T03:31:42;10.40;;;4.10;;
25049;SDS011;13046;49.814;9.918;2023-11-21T03:34:15;5.47;;;3.92;;
25049;SDS011;13046;49.814;9.918;2023-11-21T03:36:45;7.18;;;3.20;;
25049;SDS011;13046;49.814;9.918;2023-11-21T03:39:11;4.72;;;3.70;;
25049;SDS011;13046;49.814;9.918;2023-11-21T03:41:37;5.05;;;3.28;;
25049;SDS011;13046;49.814;9.918;2023-11-21T03:44:02;3.95;;;3.53;;
25049;SDS011;13046;49.814;9.918;2023-11-21T03:46:28;7.43;;;3.72;;
25049;SDS011;13046;49.814;9.918;2023-11-21T03:48:54;6.90;;;4.47;;
25049;SDS011;13046;49.814;9.918;2023-11-21T03:51:20;4.30;;;3.90;;
25049;SDS011;13046;49.814;9.918;2023-11-21T03:53:46;9.70;;;3.70;;
25049;SDS011;13046;49.814;9.918;2023-11-21T03:56:13;7.32;;;3.60;;
25049;SDS011;13046;49.814;9.918;2023-11-21T03:58:39;5.97;;;3.50;;
25049;SDS011;13046;49.814;9.918;2023-11-21T04:01:05;5.20;;;3.88;;
25049;SDS011;13046;49.814;9.918;2023-11-21T04:03:31;5.93;;;3.75;;
25049;SDS011;13046;49.814;9.918;2023-11-21T04:05:56;6.85;;;4.63;;
25049;SDS011;13046;49.814;9.918;2023-11-21T04:08:22;8.93;;;4.03;;
25049;SDS011;13046;49.814;9.918;2023-11-21T04:10:48;4.43;;;3.78;;
25049;SDS011;13046;49.814;9.918;2023-11-21T04:13:13;10.63;;;3.60;;
25049;SDS011;13046;49.814;9.918;2023-11-21T04:15:39;4.30;;;3.30;;
25049;SDS011;13046;49.814;9.918;2023-11-21T04:18:05;6.63;;;4.05;;
25049;SDS011;13046;49.814;9.918;2023-11-21T04:20:30;6.18;;;3.63;;
25049;SDS011;13046;49.814;9.918;2023-11-21T04:22:57;5.05;;;3.67;;
25049;SDS011;13046;49.814;9.918;2023-11-21T04:25:23;6.13;;;3.30;;
25049;SDS011;13046;49.814;9.918;2023-11-21T04:27:48;13.35;;;4.28;;
25049;SDS011;13046;49.814;9.918;2023-11-21T04:30:14;5.03;;;3.60;;
25049;SDS011;13046;49.814;9.918;2023-11-21T04:32:40;6.78;;;3.60;;
25049;SDS011;13046;49.814;9.918;2023-11-21T04:35:07;7.47;;;6.30;;
25049;SDS011;13046;49.814;9.918;2023-11-21T04:37:36;8.35;;;5.40;;
25049;SDS011;13046;49.814;9.918;2023-11-21T04:40:02;4.75;;;4.00;;
25049;SDS011;13046;49.814;9.918;2023-11-21T04:42:32;10.00;;;4.70;;
25049;SDS011;13046;49.814;9.918;2023-11-21T04:44:59;9.40;;;4.10;;
25049;SDS011;13046;49.814;9.918;2023-11-21T04:47:26;5.22;;;3.83;;
25049;SDS011;13046;49.814;9.918;2023-11-21T04:49:52;5.68;;;4.30;;
25049;SDS011;13046;49.814;9.918;2023-11-21T04:52:17;10.52;;;5.38;;
25049;SDS011;13046;49.814;9.918;2023-11-21T04:54:45;4.38;;;3.97;;
25049;SDS011;13046;49.814;9.918;2023-11-21T04:57:10;4.50;;;4.10;;
25049;SDS011;13046;49.814;9.918;2023-11-21T04:59:37;4.18;;;3.83;;
25049;SDS011;13046;49.814;9.918;2023-11-21T05:02:03;4.55;;;3.78;;
25049;SDS011;13046;49.814;9.918;2023-11-21T05:04:30;7.32;;;3.88;;
25049;SDS011;13046;49.814;9.918;2023-11-21T05:06:55;6.22;;;3.70;;
25049;SDS011;13046;49.814;9.918;2023-11-21T05:09:21;4.50;;;3.70;;
25049;SDS011;13046;49.814;9.918;2023-11-21T05:11:47;5.72;;;4.10;;
25049;SDS011;13046;49.814;9.918;2023-11-21T05:14:13;8.32;;;4.85;;
25049;SDS011;13046;49.814;9.918;2023-11-21T05:16:39;8.40;;;5.82;;
25049;SDS011;13046;49.814;9.918;2023-11-21T05:19:04;7.97;;;4.82;;
25049;SDS011;13046;49.814;9.918;2023-11-21T05:21:31;11.65;;;7.20;;
25049;SDS011;13046;49.814;9.918;2023-11-21T05:23:57;9.18;;;6.70;;
25049;SDS011;13046;49.814;9.918;2023-11-21T05:26:23;7.82;;;6.15;;
25049;SDS011;13046;49.814;9.918;2023-11-21T05:28:50;10.15;;;5.75;;
25049;SDS011;13046;49.814;9.918;2023-11-21T05:31:16;8.68;;;6.38;;
25049;SDS011;13046;49.814;9.918;2023-11-21T05:33:42;7.05;;;4.85;;
25049;SDS011;13046;49.814;9.918;2023-11-21T05:36:07;7.38;;;4.85;;
25049;SDS011;13046;49.814;9.918;2023-11-21T05:38:35;6.35;;;5.03;;
25049;SDS011;13046;49.814;9.918;2023-11-21T05:41:01;9.23;;;5.70;;
25049;SDS011;13046;49.814;9.918;2023-11-21T05:43:28;10.25;;;6.30;;
25049;SDS011;13046;49.814;9.918;2023-11-21T05:45:56;8.77;;;4.95;;
25049;SDS011;13046;49.814;9.918;2023-11-21T05:48:22;10.65;;;5.60;;
25049;SDS011;13046;49.814;9.918;2023-11-21T05:50:48;7.40;;;4.82;;
25049;SDS011;13046;49.814;9.918;2023-11-21T05:53:14;9.32;;;5.05;;
25049;SDS011;13046;49.814;9.918;2023-11-21T05:55:41;12.82;;;6.15;;
25049;SDS011;13046;49.814;9.918;2023-11-21T05:58:07;6.20;;;5.40;;
25049;SDS011;13046;49.814;9.918;2023-11-21T06:00:33;8.63;;;5.53;;
25049;SDS011;13046;49.814;9.918;2023-11-21T06:02:59;9.27;;;5.82;;
25049;SDS011;13046;49.814;9.918;2023-11-21T06:05:25;12.73;;;7.05;;
25049;SDS011;13046;49.814;9.918;2023-11-21T06:07:55;11.18;;;8.65;;
25049;SDS011;13046;49.814;9.918;2023-11-21T06:10:24;20.27;;;9.65;;
25049;SDS011;13046;49.814;9.918;2023-11-21T06:12:50;12.02;;;7.95;;
25049;SDS011;13046;49.814;9.918;2023-11-21T06:15:16;12.63;;;10.00;;
25049;SDS011;13046;49.814;9.918;2023-11-21T06:17:45;16.95;;;12.73;;
25049;SDS011;13046;49.814;9.918;2023-11-21T06:20:14;15.85;;;11.30;;
25049;SDS011;13046;49.814;9.918;2023-11-21T06:22:44;16.17;;;11.55;;
25049;SDS011;13046;49.814;9.918;2023-11-21T06:25:11;14.55;;;9.68;;
25049;SDS011;13046;49.814;9.918;2023-11-21T06:27:39;11.10;;;8.68;;
25049;SDS011;13046;49.814;9.918;2023-11-21T06:30:09;12.10;;;8.63;;
25049;SDS011;13046;49.814;9.918;2023-11-21T06:32:36;17.30;;;9.35;;
25049;SDS011;13046;49.814;9.918;2023-11-21T06:35:04;13.25;;;10.43;;
25049;SDS011;13046;49.814;9.918;2023-11-21T06:37:30;14.45;;;9.48;;
25049;SDS011;13046;49.814;9.918;2023-11-21T06:39:57;10.63;;;9.52;;
25049;SDS011;13046;49.814;9.918;2023-11-21T06:42:24;12.00;;;8.63;;
25049;SDS011;13046;49.814;9.918;2023-11-21T06:44:50;11.00;;;8.57;;
25049;SDS011;13046;49.814;9.918;2023-11-21T06:47:21;10.52;;;8.70;;
25049;SDS011;13046;49.814;9.918;2023-11-21T06:49:50;10.88;;;8.95;;
25049;SDS011;13046;49.814;9.918;2023-11-21T06:52:16;11.77;;;10.18;;
25049;SDS011;13046;49.814;9.918;2023-11-21T06:54:43;15.57;;;11.10;;
25049;SDS011;13046;49.814;9.918;2023-11-21T06:57:09;14.30;;;11.70;;
25049;SDS011;13046;49.814;9.918;2023-11-21T06:59:34;14.15;;;11.63;;
25049;SDS011;13046;49.814;9.918;2023-11-21T07:02:00;19.17;;;10.98;;
25049;SDS011;13046;49.814;9.918;2023-11-21T07:04:26;21.40;;;15.80;;
25049;SDS011;13046;49.814;9.918;2023-11-21T07:06:55;20.27;;;14.35;;
25049;SDS011;13046;49.814;9.918;2023-11-21T07:09:21;18.30;;;14.00;;
25049;SDS011;13046;49.814;9.918;2023-11-21T07:11:47;16.65;;;12.20;;
25049;SDS011;13046;49.814;9.918;2023-11-21T07:14:14;16.30;;;10.15;;
25049;SDS011;13046;49.814;9.918;2023-11-21T07:16:40;11.10;;;8.77;;
25049;SDS011;13046;49.814;9.918;2023-11-21T07:19:06;14.25;;;9.73;;
25049;SDS011;13046;49.814;9.918;2023-11-21T07:21:32;16.90;;;10.38;;
25049;SDS011;13046;49.814;9.918;2023-11-21T07:23:59;12.20;;;9.07;;
25049;SDS011;13046;49.814;9.918;2023-11-21T07:26:28;12.57;;;8.77;;
25049;SDS011;13046;49.814;9.918;2023-11-21T07:29:03;14.77;;;9.43;;
25049;SDS011;13046;49.814;9.918;2023-11-21T07:31:29;13.25;;;9.20;;
25049;SDS011;13046;49.814;9.918;2023-11-21T07:33:56;12.23;;;9.00;;
25049;SDS011;13046;49.814;9.918;2023-11-21T07:36:22;12.32;;;10.48;;
25049;SDS011;13046;49.814;9.918;2023-11-21T07:38:49;13.55;;;11.38;;
25049;SDS011;13046;49.814;9.918;2023-11-21T07:41:15;13.85;;;10.38;;
25049;SDS011;13046;49.814;9.918;2023-11-21T07:43:42;18.63;;;12.52;;
25049;SDS011;13046;49.814;9.918;2023-11-21T07:46:09;14.35;;;11.15;;
25049;SDS011;13046;49.814;9.918;2023-11-21T07:48:37;14.77;;;11.10;;
25049;SDS011;13046;49.814;9.918;2023-11-21T07:51:04;13.93;;;12.27;;
25049;SDS011;13046;49.814;9.918;2023-11-21T07:53:30;15.77;;;12.50;;
25049;SDS011;13046;49.814;9.918;2023-11-21T07:55:56;17.02;;;11.95;;
25049;SDS011;13046;49.814;9.918;2023-11-21T07:58:23;13.90;;;10.90;;
25049;SDS011;13046;49.814;9.918;2023-11-21T08:00:49;17.90;;;14.75;;
25049;SDS011;13046;49.814;9.918;2023-11-21T08:03:15;21.25;;;14.55;;
25049;SDS011;13046;49.814;9.918;2023-11-21T08:05:42;25.52;;;17.05;;
25049;SDS011;13046;49.814;9.918;2023-11-21T08:08:07;22.75;;;15.18;;
25049;SDS011;13046;49.814;9.918;2023-11-21T08:10:33;19.13;;;13.90;;
25049;SDS011;13046;49.814;9.918;2023-11-21T08:13:00;21.55;;;14.93;;
25049;SDS011;13046;49.814;9.918;2023-11-21T08:15:27;23.80;;;15.00;;
25049;SDS011;13046;49.814;9.918;2023-11-21T08:17:52;26.55;;;17.75;;
25049;SDS011;13046;49.814;9.918;2023-11-21T08:20:18;27.70;;;17.85;;
25049;SDS011;13046;49.814;9.918;2023-11-21T08:22:44;23.88;;;16.88;;
25049;SDS011;13046;49.814;9.918;2023-11-21T08:25:12;28.77;;;17.63;;
25049;SDS011;13046;49.814;9.918;2023-11-21T08:27:38;27.30;;;15.95;;
25049;SDS011;13046;49.814;9.918;2023-11-21T08:30:04;26.83;;;17.25;;
25049;SDS011;13046;49.814;9.918;2023-11-21T08:32:30;23.95;;;15.45;;
25049;SDS011;13046;49.814;9.918;2023-11-21T08:34:58;22.85;;;15.35;;
25049;SDS011;13046;49.814;9.918;2023-11-21T08:37:24;27.88;;;17.23;;
25049;SDS011;13046;49.814;9.918;2023-11-21T08:39:52;28.42;;;17.73;;
25049;SDS011;13046;49.814;9.918;2023-11-21T08:42:18;27.17;;;16.15;;
25049;SDS011;13046;49.814;9.918;2023-11-21T08:44:44;31.02;;;17.10;;
25049;SDS011;13046;49.814;9.918;2023-11-21T08:47:11;32.20;;;19.00;;
25049;SDS011;13046;49.814;9.918;2023-11-21T08:49:36;24.38;;;16.02;;
25049;SDS011;13046;49.814;9.918;2023-11-21T08:52:03;26.65;;;15.02;;
25049;SDS011;13046;49.814;9.918;2023-11-21T08:54:30;22.90;;;13.85;;
25049;SDS011;13046;49.814;9.918;2023-11-21T08:56:56;27.23;;;14.48;;
25049;SDS011;13046;49.814;9.918;2023-11-21T08:59:23;20.98;;;12.98;;
25049;SDS011;13046;49.814;9.918;2023-11-21T09:01:50;18.73;;;11.68;;
25049;SDS011;13046;49.814;9.918;2023-11-21T09:04:16;20.60;;;14.32;;
25049;SDS011;13046;49.814;9.918;2023-11-21T09:06:41;22.60;;;13.63;;
25049;SDS011;13046;49.814;9.918;2023-11-21T09:09:07;23.92;;;13.98;;
25049;SDS011;13046;49.814;9.918;2023-11-21T09:11:35;20.63;;;13.75;;
25049;SDS011;13046;49.814;9.918;2023-11-21T09:14:01;21.85;;;13.80;;
25049;SDS011;13046;49.814;9.918;2023-11-21T09:16:28;23.83;;;12.93;;
25049;SDS011;13046;49.814;9.918;2023-11-21T09:18:55;18.30;;;12.63;;
25049;SDS011;13046;49.814;9.918;2023-11-21T09:21:20;23.83;;;14.48;;
25049;SDS011;13046;49.814;9.918;2023-11-21T09:23:46;16.33;;;11.80;;
25049;SDS011;13046;49.814;9.918;2023-11-21T09:26:13;19.02;;;11.82;;
25049;SDS011;13046;49.814;9.918;2023-11-21T09:28:41;18.42;;;10.80;;
25049;SDS011;13046;49.814;9.918;2023-11-21T09:31:11;19.02;;;12.32;;
25049;SDS011;13046;49.814;9.918;2023-11-21T09:33:37;26.45;;;13.10;;
25049;SDS011;13046;49.814;9.918;2023-11-21T09:36:03;25.77;;;11.43;;
25049;SDS011;13046;49.814;9.918;2023-11-21T09:38:30;19.67;;;12.63;;
25049;SDS011;13046;49.814;9.918;2023-11-21T09:40:56;18.52;;;13.05;;
25049;SDS011;13046;49.814;9.918;2023-11-21T09:43:23;14.35;;;9.45;;
25049;SDS011;13046;49.814;9.918;2023-11-21T09:45:56;11.52;;;9.15;;
25049;SDS011;13046;49.814;9.918;2023-11-21T09:48:27;14.93;;;10.75;;
25049;SDS011;13046;49.814;9.918;2023-11-21T09:50:54;11.23;;;9.45;;
25049;SDS011;13046;49.814;9.918;2023-11-21T09:53:20;14.35;;;10.40;;
25049;SDS011;13046;49.814;9.918;2023-11-21T09:55:47;12.73;;;9.20;;
25049;SDS011;13046;49.814;9.918;2023-11-21T09:58:16;10.95;;;9.82;;
25049;SDS011;13046;49.814;9.918;2023-11-21T10:00:50;15.40;;;9.27;;
25049;SDS011;13046;49.814;9.918;2023-11-21T10:03:18;14.43;;;10.13;;
25049;SDS011;13046;49.814;9.918;2023-11-21T10:05:44;10.00;;;7.78;;
25049;SDS011;13046;49.814;9.918;2023-11-21T10:08:13;11.70;;;8.45;;
25049;SDS011;13046;49.814;9.918;2023-11-21T10:10:45;15.80;;;9.68;;
25049;SDS011;13046;49.814;9.918;2023-11-21T10:13:14;12.02;;;8.57;;
25049;SDS011;13046;49.814;9.918;2023-11-21T10:15:43;11.38;;;8.38;;
25049;SDS011;13046;49.814;9.918;2023-11-21T10:18:13;8.93;;;7.88;;
25049;SDS011;13046;49.814;9.918;2023-11-21T10:20:40;12.40;;;8.80;;
25049;SDS011;13046;49.814;9.918;2023-11-21T10:23:07;12.73;;;7.13;;
25049;SDS011;13046;49.814;9.918;2023-11-21T10:25:36;9.20;;;7.30;;
25049;SDS011;13046;49.814;9.918;2023-11-21T10:28:02;7.22;;;6.47;;
25049;SDS011;13046;49.814;9.918;2023-11-21T10:30:35;12.00;;;6.82;;
25049;SDS011;13046;49.814;9.918;2023-11-21T10:33:02;8.80;;;6.25;;
25049;SDS011;13046;49.814;9.918;2023-11-21T10:35:48;23.42;;;8.25;;
25049;SDS011;13046;49.814;9.918;2023-11-21T10:38:19;8.98;;;6.90;;
25049;SDS011;13046;49.814;9.918;2023-11-21T10:40:50;9.98;;;5.95;;
25049;SDS011;13046;49.814;9.918;2023-11-21T10:43:16;5.63;;;4.47;;
25049;SDS011;13046;49.814;9.918;2023-11-21T10:45:43;6.53;;;5.75;;
25049;SDS011;13046;49.814;9.918;2023-11-21T10:48:10;5.35;;;4.57;;
25049;SDS011;13046;49.814;9.918;2023-11-21T10:50:38;7.03;;;5.53;;
25049;SDS011;13046;49.814;9.918;2023-11-21T10:53:04;7.93;;;5.25;;
25049;SDS011;13046;49.814;9.918;2023-11-21T10:55:31;7.43;;;3.97;;
25049;SDS011;13046;49.814;9.918;2023-11-21T10:57:59;6.60;;;4.43;;
25049;SDS011;13046;49.814;9.918;2023-11-21T11:00:27;5.53;;;3.47;;
25049;SDS011;13046;49.814;9.918;2023-11-21T11:02:53;6.07;;;3.78;;
25049;SDS011;13046;49.814;9.918;2023-11-21T11:05:21;4.80;;;3.63;;
25049;SDS011;13046;49.814;9.918;2023-11-21T11:08:05;7.47;;;3.50;;
25049;SDS011;13046;49.814;9.918;2023-11-21T11:10:32;3.83;;;3.40;;
25049;SDS011;13046;49.814;9.918;2023-11-21T11:12:58;5.50;;;3.30;;
25049;SDS011;13046;49.814;9.918;2023-11-21T11:15:24;10.02;;;5.30;;
25049;SDS011;13046;49.814;9.918;2023-11-21T11:17:51;5.10;;;2.95;;
25049;SDS011;13046;49.814;9.918;2023-11-21T11:20:22;4.93;;;3.63;;
25049;SDS011;13046;49.814;9.918;2023-11-21T11:22:59;7.07;;;3.33;;
25049;SDS011;13046;49.814;9.918;2023-11-21T11:26:04;6.63;;;3.47;;
25049;SDS011;13046;49.814;9.918;2023-11-21T11:28:51;5.40;;;3.03;;
25049;SDS011;13046;49.814;9.918;2023-11-21T11:37:28;4.53;;;2.55;;
25049;SDS011;13046;49.814;9.918;2023-11-21T11:39:55;18.05;;;14.32;;
25049;SDS011;13046;49.814;9.918;2023-11-21T11:42:22;9.52;;;4.70;;
25049;SDS011;13046;49.814;9.918;2023-11-21T11:44:49;8.52;;;3.83;;
25049;SDS011;13046;49.814;9.918;2023-11-21T11:50:08;3.75;;;2.67;;
25049;SDS011;13046;49.814;9.918;2023-11-21T11:52:46;4.47;;;3.00;;
25049;SDS011;13046;49.814;9.918;2023-11-21T11:55:13;11.30;;;7.07;;
25049;SDS011;13046;49.814;9.918;2023-11-21T11:57:41;50.67;;;45.63;;
25049;SDS011;13046;49.814;9.918;2023-11-21T12:02:40;7.22;;;3.85;;
25049;SDS011;13046;49.814;9.918;2023-11-21T12:05:09;5.45;;;2.42;;
25049;SDS011;13046;49.814;9.918;2023-11-21T12:07:49;3.78;;;3.00;;
25049;SDS011;13046;49.814;9.918;2023-11-21T12:10:19;6.35;;;3.72;;
25049;SDS011;13046;49.814;9.918;2023-11-21T12:12:50;9.98;;;3.90;;
25049;SDS011;13046;49.814;9.918;2023-11-21T12:15:19;10.98;;;5.95;;
25049;SDS011;13046;49.814;9.918;2023-11-21T12:17:46;5.22;;;3.25;;
25049;SDS011;13046;49.814;9.918;2023-11-21T12:20:15;6.25;;;5.25;;
25049;SDS011;13046;49.814;9.918;2023-11-21T12:22:53;3.90;;;2.58;;
25049;SDS011;13046;49.814;9.918;2023-11-21T12:25:27;7.10;;;5.25;;
25049;SDS011;13046;49.814;9.918;2023-11-21T12:27:54;7.25;;;6.50;;
25049;SDS011;13046;49.814;9.918;2023-11-21T12:30:25;3.35;;;3.05;;
25049;SDS011;13046;49.814;9.918;2023-11-21T12:32:56;3.35;;;2.78;;
25049;SDS011;13046;49.814;9.918;2023-11-21T12:35:27;6.40;;;3.38;;
25049;SDS011;13046;49.814;9.918;2023-11-21T12:37:59;3.35;;;2.60;;
25049;SDS011;13046;49.814;9.918;2023-11-21T12:40:25;4.43;;;2.33;;
25049;SDS011;13046;49.814;9.918;2023-11-21T12:42:53;4.30;;;3.65;;
25049;SDS011;13046;49.814;9.918;2023-11-21T12:45:25;2.42;;;2.15;;
25049;SDS011;13046;49.814;9.918;2023-11-21T12:48:02;4.40;;;2.60;;
25049;SDS011;13046;49.814;9.918;2023-11-21T12:50:32;3.40;;;2.20;;
25049;SDS011;13046;49.814;9.918;2023-11-21T12:53:09;4.95;;;2.10;;
25049;SDS011;13046;49.814;9.918;2023-11-21T12:55:37;3.22;;;2.47;;
25049;SDS011;13046;49.814;9.918;2023-11-21T12:58:03;3.70;;;2.25;;
25049;SDS011;13046;49.814;9.918;2023-11-21T13:00:43;5.38;;;4.63;;
25049;SDS011;13046;49.814;9.918;2023-11-21T13:03:11;3.97;;;2.88;;
25049;SDS011;13046;49.814;9.918;2023-11-21T13:05:42;3.67;;;2.72;;
25049;SDS011;13046;49.814;9.918;2023-11-21T13:08:09;3.30;;;2.50;;
25049;SDS011;13046;49.814;9.918;2023-11-21T13:10:38;5.07;;;2.40;;
25049;SDS011;13046;49.814;9.918;2023-11-21T13:13:06;2.83;;;2.50;;
25049;SDS011;13046;49.814;9.918;2023-11-21T13:15:34;2.75;;;2.00;;
25049;SDS011;13046;49.814;9.918;2023-11-21T13:18:03;3.72;;;2.72;;
25049;SDS011;13046;49.814;9.918;2023-11-21T13:20:29;4.22;;;2.75;;
25049;SDS011;13046;49.814;9.918;2023-11-21T13:22:56;5.22;;;2.75;;
25049;SDS011;13046;49.814;9.918;2023-11-21T13:25:27;3.60;;;2.65;;
25049;SDS011;13046;49.814;9.918;2023-11-21T13:27:57;11.45;;;6.00;;
25049;SDS011;13046;49.814;9.918;2023-11-21T13:30:24;30.08;;;24.15;;
25049;SDS011;13046;49.814;9.918;2023-11-21T13:32:58;17.48;;;12.90;;
25049;SDS011;13046;49.814;9.918;2023-11-21T13:35:30;4.10;;;2.70;;
25049;SDS011;13046;49.814;9.918;2023-11-21T13:38:03;4.13;;;2.92;;
25049;SDS011;13046;49.814;9.918;2023-11-21T13:40:30;5.88;;;2.72;;
25049;SDS011;13046;49.814;9.918;2023-11-21T13:42:59;2.83;;;2.53;;
25049;SDS011;13046;49.814;9.918;2023-11-21T13:45:29;5.30;;;4.30;;
25049;SDS011;13046;49.814;9.918;2023-11-21T13:47:56;3.33;;;2.40;;
25049;SDS011;13046;49.814;9.918;2023-11-21T13:50:24;3.95;;;2.75;;
25049;SDS011;13046;49.814;9.918;2023-11-21T13:53:00;5.55;;;2.85;;
25049;SDS011;13046;49.814;9.918;2023-11-21T13:55:45;5.13;;;2.40;;
25049;SDS011;13046;49.814;9.918;2023-11-21T13:58:12;3.72;;;2.53;;
25049;SDS011;13046;49.814;9.918;2023-11-21T14:00:44;5.97;;;2.20;;
25049;SDS011;13046;49.814;9.918;2023-11-21T14:03:14;6.78;;;2.53;;
25049;SDS011;13046;49.814;9.918;2023-11-21T14:05:46;5.15;;;3.35;;
25049;SDS011;13046;49.814;9.918;2023-11-21T14:08:21;7.63;;;5.03;;
25049;SDS011;13046;49.814;9.918;2023-11-21T14:10:49;4.90;;;3.58;;
25049;SDS011;13046;49.814;9.918;2023-11-21T14:13:18;6.65;;;4.95;;
25049;SDS011;13046;49.814;9.918;2023-11-21T14:15:48;8.90;;;6.45;;
25049;SDS011;13046;49.814;9.918;2023-11-21T14:18:19;6.30;;;4.40;;
25049;SDS011;13046;49.814;9.918;2023-11-21T14:20:52;4.72;;;3.60;;
25049;SDS011;13046;49.814;9.918;2023-11-21T14:23:18;6.47;;;3.50;;
25049;SDS011;13046;49.814;9.918;2023-11-21T14:25:46;9.00;;;3.40;;
25049;SDS011;13046;49.814;9.918;2023-11-21T14:28:13;5.85;;;3.22;;
25049;SDS011;13046;49.814;9.918;2023-11-21T14:30:39;7.15;;;5.30;;
25049;SDS011;13046;49.814;9.918;2023-11-21T14:33:07;5.05;;;3.10;;
25049;SDS011;13046;49.814;9.918;2023-11-21T14:35:35;4.03;;;3.25;;
25049;SDS011;13046;49.814;9.918;2023-11-21T14:38:01;10.05;;;4.45;;
25049;SDS011;13046;49.814;9.918;2023-11-21T14:40:31;7.60;;;5.35;;
25049;SDS011;13046;49.814;9.918;2023-11-21T14:43:01;20.38;;;11.68;;
25049;SDS011;13046;49.814;9.918;2023-11-21T14:45:32;7.00;;;5.53;;
25049;SDS011;13046;49.814;9.918;2023-11-21T14:47:59;5.57;;;3.92;;
25049;SDS011;13046;49.814;9.918;2023-11-21T14:50:32;6.60;;;3.47;;
25049;SDS011;13046;49.814;9.918;2023-11-21T14:53:24;4.32;;;2.85;;
25049;SDS011;13046;49.814;9.918;2023-11-21T14:56:09;6.28;;;3.83;;